createdAt,value
2017-05-05T00:01:02.678Z,80.10
2017-05-05T00:03:32.714Z,80.30
2017-05-05T00:06:01.779Z,80.50
2017-05-05T00:08:30.826Z,80.70
2017-05-05T00:11:00.006Z,80.70
2017-05-05T00:13:29.063Z,80.20
2017-05-05T00:15:58.118Z,80.20
2017-05-05T00:18:27.183Z,80.10
2017-05-05T00:20:56.976Z,79.90
2017-05-05T00:23:26.159Z,80.00
2017-05-05T00:25:55.214Z,79.70
2017-05-05T00:28:24.374Z,80.10
2017-05-05T00:30:53.518Z,80.30
2017-05-05T00:33:28.508Z,80.40
2017-05-05T00:36:04.374Z,80.30
2017-05-05T00:38:39.404Z,79.90
2017-05-05T00:41:09.190Z,79.60
2017-05-05T00:43:38.278Z,79.80
2017-05-05T00:46:07.327Z,80.30
2017-05-05T00:48:36.431Z,80.40
2017-05-05T00:51:05.471Z,80.60
2017-05-05T00:53:35.303Z,80.70
2017-05-05T00:56:04.371Z,81.60
2017-05-05T00:58:33.458Z,80.60
2017-05-05T01:01:02.523Z,80.90
2017-05-05T01:03:31.639Z,80.60
2017-05-05T01:06:00.702Z,80.80
2017-05-05T01:08:29.785Z,80.50
2017-05-05T01:10:58.831Z,80.10
2017-05-05T01:13:27.927Z,80.40
2017-05-05T01:15:56.974Z,79.80
2017-05-05T01:18:26.163Z,80.10
2017-05-05T01:20:55.937Z,80.80
2017-05-05T01:23:25.016Z,80.30
2017-05-05T01:25:54.086Z,80.30
2017-05-05T01:28:23.143Z,80.30
2017-05-05T01:30:52.968Z,79.90
2017-05-05T01:33:22.745Z,80.00
2017-05-05T01:35:51.822Z,80.00
2017-05-05T01:38:20.918Z,80.00
2017-05-05T01:40:49.966Z,80.00
2017-05-05T01:43:19.072Z,80.00
2017-05-05T01:45:48.147Z,80.20
2017-05-05T01:48:17.248Z,80.00
2017-05-05T01:50:46.290Z,80.40
2017-05-05T01:53:15.382Z,80.60
2017-05-05T01:55:44.481Z,80.00
2017-05-05T01:58:13.574Z,79.60
2017-05-05T02:00:42.627Z,80.00
2017-05-05T02:03:11.698Z,80.20
2017-05-05T02:05:41.523Z,80.10
2017-05-05T02:08:10.559Z,81.10
2017-05-05T02:10:39.644Z,80.20
2017-05-05T02:13:08.722Z,80.20
2017-05-05T02:15:37.802Z,80.20
2017-05-05T02:18:06.942Z,80.20
2017-05-05T02:20:35.981Z,80.70
2017-05-05T02:23:05.093Z,80.80
2017-05-05T02:25:34.170Z,80.40
2017-05-05T02:28:03.236Z,80.40
2017-05-05T02:30:32.366Z,80.10
2017-05-05T02:33:01.414Z,80.10
2017-05-05T02:35:30.514Z,80.20
2017-05-05T02:37:59.590Z,80.10
2017-05-05T02:40:28.688Z,79.80
2017-05-05T02:42:57.754Z,80.00
2017-05-05T02:45:26.858Z,80.60
2017-05-05T02:47:55.919Z,81.60
2017-05-05T02:50:25.047Z,81.20
2017-05-05T02:52:54.221Z,81.20
2017-05-05T02:55:23.311Z,81.00
2017-05-05T02:57:52.363Z,81.50
2017-05-05T03:00:21.441Z,80.10
2017-05-05T03:02:50.538Z,80.10
2017-05-05T03:05:19.594Z,79.90
2017-05-05T03:07:48.686Z,79.50
2017-05-05T03:10:17.751Z,79.40
2017-05-05T03:12:47.592Z,79.00
2017-05-05T03:15:16.652Z,79.10
2017-05-05T03:17:46.490Z,79.40
2017-05-05T03:20:15.581Z,79.10
2017-05-05T03:22:44.675Z,78.40
2017-05-05T03:25:13.734Z,78.30
2017-05-05T03:27:42.834Z,79.30
2017-05-05T03:30:12.678Z,79.60
2017-05-05T03:32:42.550Z,79.50
2017-05-05T03:35:11.591Z,79.30
2017-05-05T03:37:41.419Z,79.40
2017-05-05T03:40:10.483Z,79.20
2017-05-05T03:42:40.314Z,79.60
2017-05-05T03:45:10.087Z,79.50
2017-05-05T03:47:39.159Z,79.90
2017-05-05T03:50:08.260Z,79.90
2017-05-05T03:52:37.315Z,79.80
2017-05-05T03:55:06.443Z,80.30
2017-05-05T03:57:35.499Z,80.00
2017-05-05T04:00:04.607Z,80.40
2017-05-05T04:02:33.652Z,80.20
2017-05-05T04:05:02.737Z,79.90
2017-05-05T04:07:31.943Z,79.50
2017-05-05T04:10:01.015Z,80.00
2017-05-05T04:12:30.058Z,79.90
2017-05-05T04:14:59.183Z,80.10
2017-05-05T04:17:28.234Z,80.00
2017-05-05T04:19:58.120Z,80.10
2017-05-05T04:22:27.167Z,79.60
2017-05-05T04:24:56.300Z,81.00
2017-05-05T04:27:25.349Z,80.20
2017-05-05T04:29:54.467Z,79.90
2017-05-05T04:32:23.534Z,79.60
2017-05-05T04:34:53.397Z,79.60
2017-05-05T04:37:22.418Z,79.90
2017-05-05T04:39:51.578Z,80.00
2017-05-05T04:42:20.623Z,80.00
2017-05-05T04:44:50.459Z,80.50
2017-05-05T04:47:19.531Z,79.90
2017-05-05T04:49:48.627Z,79.70
2017-05-05T04:52:17.674Z,78.90
2017-05-05T04:54:46.778Z,79.00
2017-05-05T04:57:15.895Z,79.20
2017-05-05T04:59:45.696Z,79.30
2017-05-05T05:02:14.802Z,79.10
2017-05-05T05:04:43.906Z,79.20
2017-05-05T05:07:13.017Z,78.20
2017-05-05T05:09:42.140Z,78.70
2017-05-05T05:12:11.411Z,78.60
2017-05-05T05:14:40.510Z,78.40
2017-05-05T05:17:09.574Z,78.00
2017-05-05T05:19:38.906Z,78.20
2017-05-05T05:22:08.013Z,77.90
2017-05-05T05:24:37.083Z,77.60
2017-05-05T05:27:06.196Z,78.00
2017-05-05T05:29:35.378Z,77.30
2017-05-05T05:32:04.468Z,78.30
2017-05-05T05:34:34.278Z,77.50
2017-05-05T05:37:03.340Z,77.10
2017-05-05T05:39:32.878Z,77.10
2017-05-05T05:42:01.953Z,76.40
2017-05-05T05:44:31.003Z,77.10
2017-05-05T05:47:00.103Z,77.30
2017-05-05T05:49:29.199Z,77.20
2017-05-05T05:51:58.345Z,77.20
2017-05-05T05:54:28.126Z,76.50
2017-05-05T05:56:58.107Z,76.80
2017-05-05T05:59:27.183Z,76.60
2017-05-05T06:01:56.247Z,76.00
2017-05-05T06:04:25.336Z,75.50
2017-05-05T06:06:55.127Z,75.20
2017-05-05T06:11:59.588Z,72.90
2017-05-05T06:14:29.419Z,72.70
2017-05-05T06:16:58.491Z,72.20
2017-05-05T06:19:28.311Z,72.60
2017-05-05T06:21:57.628Z,72.40
2017-05-05T06:24:26.721Z,72.40
2017-05-05T06:26:55.785Z,71.70
2017-05-05T06:29:25.203Z,70.90
2017-05-05T06:31:54.407Z,71.20
2017-05-05T06:34:23.472Z,71.80
2017-05-05T06:36:52.554Z,71.60
2017-05-05T06:39:21.617Z,72.10
2017-05-05T06:41:50.895Z,70.00
2017-05-05T06:44:19.989Z,70.50
2017-05-05T06:46:49.073Z,71.70
2017-05-05T06:49:18.156Z,71.20
2017-05-05T06:51:47.431Z,71.30
2017-05-05T06:54:16.503Z,71.20
2017-05-05T06:56:45.574Z,70.30
2017-05-05T06:59:14.659Z,70.80
2017-05-05T07:01:43.721Z,70.10
2017-05-05T07:04:13.043Z,70.00
2017-05-05T07:06:42.843Z,70.10
2017-05-05T07:09:12.666Z,70.30
2017-05-05T07:11:42.486Z,70.00
2017-05-05T07:14:12.298Z,71.00
2017-05-05T07:16:41.411Z,70.10
2017-05-05T07:19:10.478Z,69.70
2017-05-05T07:21:40.711Z,70.30
2017-05-05T07:24:09.762Z,71.90
2017-05-05T07:26:38.826Z,70.90
2017-05-05T07:29:07.932Z,70.30
2017-05-05T07:31:36.992Z,69.90
2017-05-05T07:34:06.078Z,69.70
2017-05-05T07:36:35.150Z,69.50
2017-05-05T07:39:04.236Z,69.00
2017-05-05T07:41:34.058Z,69.60
2017-05-05T07:44:03.888Z,69.40
2017-05-05T07:46:33.682Z,69.60
2017-05-05T07:49:03.619Z,70.40
2017-05-05T07:51:32.670Z,70.30
2017-05-05T07:54:01.726Z,70.10
2017-05-05T07:56:30.800Z,69.70
2017-05-05T07:59:00.613Z,69.60
2017-05-05T08:01:29.695Z,69.00
2017-05-05T08:03:58.763Z,68.50
2017-05-05T08:06:27.855Z,66.90
2017-05-05T08:08:56.950Z,67.40
2017-05-05T08:11:26.151Z,67.70
2017-05-05T08:13:55.985Z,67.10
2017-05-05T08:16:25.802Z,66.30
2017-05-05T08:18:54.915Z,66.30
2017-05-05T08:21:23.974Z,66.80
2017-05-05T08:23:53.068Z,67.30
2017-05-05T08:26:22.111Z,67.70
2017-05-05T08:28:51.193Z,69.10
2017-05-05T08:31:20.246Z,68.80
2017-05-05T08:33:49.347Z,69.10
2017-05-05T08:36:19.155Z,69.40
2017-05-05T08:38:49.104Z,71.30
2017-05-05T08:41:18.315Z,71.30
2017-05-05T08:43:47.380Z,72.10
2017-05-05T08:46:16.478Z,72.50
2017-05-05T08:48:45.566Z,72.40
2017-05-05T08:51:14.683Z,72.40
2017-05-05T08:53:43.755Z,72.70
2017-05-05T08:56:13.611Z,74.20
2017-05-05T08:58:42.756Z,74.70
2017-05-05T09:01:12.287Z,74.90
2017-05-05T09:03:41.720Z,74.70
2017-05-05T09:06:10.775Z,74.80
2017-05-05T09:08:40.583Z,74.20
2017-05-05T09:11:10.369Z,74.70
2017-05-05T09:13:40.315Z,75.50
2017-05-05T09:16:10.210Z,75.50
2017-05-05T09:18:39.262Z,75.90
2017-05-05T09:21:08.388Z,74.80
2017-05-05T09:23:37.469Z,73.00
2017-05-05T09:26:06.582Z,73.10
2017-05-05T09:28:35.681Z,72.60
2017-05-05T09:31:04.899Z,71.70
2017-05-05T09:33:33.994Z,70.20
2017-05-05T09:36:03.128Z,69.40
2017-05-05T09:38:32.230Z,70.90
2017-05-05T09:41:01.349Z,71.60
2017-05-05T09:43:30.800Z,72.20
2017-05-05T09:45:59.874Z,72.60
2017-05-05T09:48:28.985Z,72.40
2017-05-05T09:50:58.079Z,73.10
2017-05-05T09:53:27.158Z,73.10
2017-05-05T09:55:56.354Z,73.80
2017-05-05T09:58:25.430Z,73.60
2017-05-05T10:00:54.515Z,73.10
2017-05-05T10:03:23.598Z,73.10
2017-05-05T10:05:52.886Z,72.70
2017-05-05T10:08:22.078Z,71.70
2017-05-05T10:10:51.129Z,71.60
2017-05-05T10:13:20.190Z,70.90
2017-05-05T10:15:49.280Z,71.60
2017-05-05T10:18:18.351Z,72.20
2017-05-05T10:20:47.630Z,73.40
2017-05-05T10:23:16.679Z,73.90
2017-05-05T10:25:45.748Z,73.60
2017-05-05T10:28:14.841Z,73.50
2017-05-05T10:30:44.103Z,73.00
2017-05-05T10:33:13.461Z,73.00
2017-05-05T10:35:44.265Z,72.50
2017-05-05T10:38:13.699Z,72.00
2017-05-05T10:40:42.759Z,71.70
2017-05-05T10:43:11.798Z,70.00
2017-05-05T10:45:40.863Z,71.00
2017-05-05T10:48:09.932Z,72.00
2017-05-05T10:50:39.303Z,72.80
2017-05-05T10:53:08.506Z,72.80
2017-05-05T10:55:37.602Z,73.50
2017-05-05T10:58:06.696Z,73.60
2017-05-05T11:00:35.763Z,74.30
2017-05-05T11:03:05.091Z,74.30
2017-05-05T11:05:34.159Z,74.40
2017-05-05T11:08:03.211Z,74.30
2017-05-05T11:10:32.301Z,74.80
2017-05-05T11:13:01.359Z,74.70
2017-05-05T11:15:36.019Z,75.30
2017-05-05T11:18:05.086Z,74.70
2017-05-05T11:20:34.201Z,74.60
2017-05-05T11:23:03.259Z,73.40
2017-05-05T11:25:32.351Z,73.30
2017-05-05T11:28:01.398Z,72.90
2017-05-05T11:30:30.762Z,72.20
2017-05-05T11:33:00.554Z,72.60
2017-05-05T11:35:29.618Z,73.40
2017-05-05T11:37:58.719Z,73.70
2017-05-05T11:40:27.778Z,74.20
2017-05-05T11:42:56.967Z,74.10
2017-05-05T11:45:26.018Z,74.30
2017-05-05T11:47:55.066Z,74.30
2017-05-05T11:50:24.156Z,73.50
2017-05-05T11:52:53.230Z,73.50
2017-05-05T11:55:22.338Z,73.20
2017-05-05T11:57:51.427Z,73.50
2017-05-05T12:00:20.723Z,73.20
2017-05-05T12:02:49.788Z,73.60
2017-05-05T12:05:18.847Z,72.70
2017-05-05T12:07:48.015Z,71.90
2017-05-05T12:10:17.782Z,71.90
2017-05-05T12:12:46.855Z,72.20
2017-05-05T12:15:15.999Z,72.20
2017-05-05T12:17:45.091Z,72.50
2017-05-05T12:20:14.498Z,72.50
2017-05-05T12:22:43.574Z,72.40
2017-05-05T12:25:12.634Z,71.40
2017-05-05T12:27:41.822Z,70.80
2017-05-05T12:30:10.882Z,71.00
2017-05-05T12:32:40.490Z,70.40
2017-05-05T12:35:09.571Z,70.20
2017-05-05T12:37:39.367Z,69.50
2017-05-05T12:40:08.496Z,68.90
2017-05-05T12:42:37.571Z,69.00
2017-05-05T12:45:08.418Z,69.50
2017-05-05T12:47:37.469Z,69.20
2017-05-05T12:50:06.562Z,68.90
2017-05-05T12:52:37.454Z,69.50
2017-05-05T12:55:06.503Z,69.20
2017-05-05T12:57:35.848Z,69.40
2017-05-05T13:00:06.126Z,69.50
2017-05-05T13:02:36.729Z,69.80
2017-05-05T13:05:05.951Z,69.00
2017-05-05T13:07:35.048Z,69.70
2017-05-05T13:10:04.098Z,70.40
2017-05-05T13:12:33.190Z,70.40
2017-05-05T13:15:02.274Z,70.50
2017-05-05T13:17:31.677Z,70.80
2017-05-05T13:20:00.758Z,70.90
2017-05-05T13:22:29.815Z,70.50
2017-05-05T13:24:59.004Z,70.70
2017-05-05T13:27:28.103Z,70.90
2017-05-05T13:29:57.192Z,70.80
2017-05-05T13:32:26.283Z,70.90
2017-05-05T13:34:55.441Z,71.20
2017-05-05T13:37:24.539Z,70.80
2017-05-05T13:39:53.714Z,70.20
2017-05-05T13:42:22.910Z,69.90
2017-05-05T13:44:52.716Z,69.50
2017-05-05T13:47:21.803Z,69.20
2017-05-05T13:49:51.931Z,68.30
2017-05-05T13:52:21.743Z,67.50
2017-05-05T13:54:51.581Z,67.60
2017-05-05T13:57:20.807Z,66.60
2017-05-05T13:59:49.887Z,66.80
2017-05-05T14:02:18.955Z,67.20
2017-05-05T14:04:48.898Z,67.90
2017-05-05T14:07:17.954Z,68.20
2017-05-05T14:09:47.026Z,68.20
2017-05-05T14:12:16.120Z,67.90
2017-05-05T14:14:45.396Z,67.10
2017-05-05T14:17:14.571Z,66.60
2017-05-05T14:19:43.635Z,66.40
2017-05-05T14:22:12.707Z,65.70
2017-05-05T14:24:41.963Z,65.70
2017-05-05T14:27:11.026Z,66.00
2017-05-05T14:29:40.096Z,66.20
2017-05-05T14:32:09.524Z,66.10
2017-05-05T14:34:38.603Z,66.00
2017-05-05T14:37:10.637Z,65.80
2017-05-05T14:39:39.992Z,66.30
2017-05-05T14:42:09.062Z,67.20
2017-05-05T14:44:38.867Z,66.50
2017-05-05T14:47:08.091Z,67.50
2017-05-05T14:49:37.155Z,68.60
2017-05-05T14:52:06.223Z,68.40
2017-05-05T14:54:35.592Z,68.50
2017-05-05T14:57:04.676Z,68.50
2017-05-05T14:59:34.493Z,68.50
2017-05-05T15:02:05.029Z,68.40
2017-05-05T15:04:34.075Z,68.30
2017-05-05T15:07:03.352Z,69.40
2017-05-05T15:09:32.430Z,68.50
2017-05-05T15:12:01.507Z,68.20
2017-05-05T15:14:30.802Z,69.10
2017-05-05T15:16:59.875Z,70.10
2017-05-05T15:19:29.268Z,69.50
2017-05-05T15:21:58.361Z,69.40
2017-05-05T15:24:28.183Z,69.20
2017-05-05T15:26:57.499Z,68.90
2017-05-05T15:29:26.590Z,68.90
2017-05-05T15:31:55.707Z,68.80
2017-05-05T15:34:24.830Z,68.90
2017-05-05T15:36:53.914Z,69.20
2017-05-05T15:39:23.347Z,69.20
2017-05-05T15:41:52.428Z,69.00
2017-05-05T15:44:21.630Z,69.00
2017-05-05T15:46:51.475Z,68.60
2017-05-05T15:49:21.316Z,68.60
2017-05-05T15:51:50.791Z,68.90
2017-05-05T15:54:20.596Z,68.60
2017-05-05T15:56:49.691Z,68.70
2017-05-05T15:59:18.831Z,68.60
2017-05-05T16:01:47.921Z,68.80
2017-05-05T16:04:17.027Z,68.90
2017-05-05T16:06:46.112Z,69.10
2017-05-05T16:09:16.296Z,69.20
2017-05-05T16:11:45.390Z,69.60
2017-05-05T16:14:14.482Z,69.60
2017-05-05T16:16:43.804Z,69.50
2017-05-05T16:19:13.156Z,69.70
2017-05-05T16:21:42.276Z,69.30
2017-05-05T16:24:11.816Z,69.30
2017-05-05T16:26:40.862Z,69.40
2017-05-05T16:29:10.112Z,69.50
2017-05-05T16:31:39.367Z,69.60
2017-05-05T16:34:08.480Z,69.50
2017-05-05T16:36:38.295Z,69.20
2017-05-05T16:39:07.600Z,69.30
2017-05-05T16:41:36.667Z,69.40
2017-05-05T16:44:05.752Z,69.20
2017-05-05T16:46:35.613Z,69.40
2017-05-05T16:49:05.572Z,69.10
2017-05-05T16:51:34.790Z,69.20
2017-05-05T16:54:03.889Z,68.50
2017-05-05T16:56:33.706Z,68.90
2017-05-05T16:59:03.066Z,69.40
2017-05-05T17:01:32.135Z,69.30
2017-05-05T17:04:02.235Z,69.40
2017-05-05T17:06:31.329Z,69.40
2017-05-05T17:09:00.455Z,69.70
2017-05-05T17:11:29.681Z,69.60
2017-05-05T17:13:58.777Z,69.70
2017-05-05T17:16:27.855Z,69.90
2017-05-05T17:18:57.000Z,70.20
2017-05-05T17:21:26.109Z,70.40
2017-05-05T17:23:55.198Z,70.50
2017-05-05T17:26:24.272Z,70.40
2017-05-05T17:28:53.638Z,70.30
2017-05-05T17:31:22.744Z,70.30
2017-05-05T17:33:51.825Z,70.40
2017-05-05T17:36:21.464Z,71.20
2017-05-05T17:38:50.574Z,71.40
2017-05-05T17:41:19.695Z,71.60
2017-05-05T17:43:48.787Z,71.70
2017-05-05T17:46:18.263Z,71.70
2017-05-05T17:48:47.357Z,71.30
2017-05-05T17:51:16.444Z,71.30
2017-05-05T17:53:46.299Z,71.10
2017-05-05T17:56:15.370Z,71.40
2017-05-05T17:58:44.603Z,71.20
2017-05-05T18:01:13.675Z,71.10
2017-05-05T18:03:42.774Z,70.80
2017-05-05T18:06:11.877Z,70.50
2017-05-05T18:08:41.067Z,70.70
2017-05-05T18:11:10.627Z,70.70
2017-05-05T18:13:40.487Z,70.70
2017-05-05T18:16:09.588Z,70.60
2017-05-05T18:18:38.678Z,70.70
2017-05-05T18:21:07.914Z,70.90
2017-05-05T18:23:36.987Z,70.60
2017-05-05T18:26:06.843Z,70.40
2017-05-05T18:28:36.356Z,70.20
2017-05-05T18:31:05.436Z,70.70
2017-05-05T18:33:34.539Z,70.00
2017-05-05T18:36:03.962Z,69.90
2017-05-05T18:38:33.076Z,70.00
2017-05-05T18:41:02.182Z,70.10
2017-05-05T18:43:31.556Z,69.80
2017-05-05T18:46:00.630Z,69.60
2017-05-05T18:48:29.694Z,69.30
2017-05-05T18:50:58.788Z,69.40
2017-05-05T18:53:28.612Z,70.50
2017-05-05T18:55:57.697Z,69.60
2017-05-05T18:58:26.756Z,69.90
2017-05-05T19:00:55.850Z,70.00
2017-05-05T19:03:24.929Z,70.00
2017-05-05T19:05:54.355Z,70.10
2017-05-05T19:08:23.455Z,70.00
2017-05-05T19:10:52.547Z,69.70
2017-05-05T19:13:21.753Z,69.90
2017-05-05T19:15:50.816Z,70.50
2017-05-05T19:18:19.924Z,70.70
2017-05-05T19:20:49.011Z,70.60
2017-05-05T19:23:18.130Z,70.10
2017-05-05T19:25:47.234Z,70.80
2017-05-05T19:28:16.913Z,70.90
2017-05-05T19:30:45.993Z,71.00
2017-05-05T19:33:15.071Z,70.90
2017-05-05T19:35:45.007Z,70.90
2017-05-05T19:38:14.082Z,71.20
2017-05-05T19:40:43.194Z,71.00
2017-05-05T19:43:12.806Z,71.00
2017-05-05T19:45:41.877Z,70.70
2017-05-05T19:48:10.973Z,70.60
2017-05-05T19:50:40.627Z,70.60
2017-05-05T19:53:10.014Z,70.60
2017-05-05T19:55:39.091Z,70.80
2017-05-05T19:58:08.420Z,70.50
2017-05-05T20:00:37.491Z,70.30
2017-05-05T20:03:06.572Z,70.40
2017-05-05T20:05:35.674Z,70.50
2017-05-05T20:08:04.810Z,70.20
2017-05-05T20:10:34.071Z,70.50
2017-05-05T20:13:03.167Z,70.60
2017-05-05T20:15:32.256Z,70.80
2017-05-05T20:18:01.643Z,70.80
2017-05-05T20:20:30.743Z,71.30
2017-05-05T20:22:59.816Z,71.10
2017-05-05T20:25:29.651Z,71.20
2017-05-05T20:27:58.793Z,71.40
2017-05-05T20:30:28.015Z,71.50
2017-05-05T20:33:02.728Z,71.70
2017-05-05T20:35:32.180Z,71.80
2017-05-05T20:38:01.296Z,71.80
2017-05-05T20:40:30.376Z,71.80
2017-05-05T20:42:59.473Z,72.00
2017-05-05T20:45:28.563Z,72.10
2017-05-05T20:47:57.859Z,72.40
2017-05-05T20:50:26.958Z,72.50
2017-05-05T20:52:56.052Z,72.60
2017-05-05T20:55:25.153Z,72.70
2017-05-05T20:57:54.292Z,72.80
2017-05-05T21:00:23.423Z,72.70
2017-05-05T21:02:52.476Z,72.80
2017-05-05T21:05:21.684Z,72.80
2017-05-05T21:07:50.791Z,72.70
2017-05-05T21:10:27.539Z,72.90
2017-05-05T21:12:58.732Z,72.60
2017-05-05T21:15:27.939Z,72.80
2017-05-05T21:17:57.010Z,72.80
2017-05-05T21:20:26.097Z,73.40
2017-05-05T21:22:55.937Z,73.00
2017-05-05T21:25:25.010Z,73.20
2017-05-05T21:27:54.438Z,73.40
2017-05-05T21:30:23.529Z,73.10
2017-05-05T21:32:52.685Z,73.20
2017-05-05T21:35:21.775Z,73.40
2017-05-05T21:37:50.846Z,73.40
2017-05-05T21:40:20.212Z,73.40
2017-05-05T21:42:49.298Z,73.60
2017-05-05T21:45:18.371Z,73.50
2017-05-05T21:47:47.703Z,73.60
2017-05-05T21:50:16.810Z,73.40
2017-05-05T21:52:45.891Z,73.40
2017-05-05T21:55:14.997Z,73.60
2017-05-05T21:57:44.080Z,73.60
2017-05-05T22:00:13.495Z,73.70
2017-05-05T22:02:42.559Z,73.50
2017-05-05T22:05:12.380Z,73.40
2017-05-05T22:07:41.484Z,73.50
2017-05-05T22:10:10.542Z,73.90
2017-05-05T22:12:40.499Z,73.80
2017-05-05T22:15:09.554Z,73.90
2017-05-05T22:17:39.377Z,73.80
2017-05-05T22:20:08.467Z,73.50
2017-05-05T22:22:37.536Z,73.70
2017-05-05T22:25:07.204Z,73.50
2017-05-05T22:27:36.272Z,73.60
2017-05-05T22:30:05.512Z,73.60
2017-05-05T22:32:34.595Z,73.80
2017-05-05T22:35:03.648Z,73.80
2017-05-05T22:37:33.488Z,73.70
2017-05-05T22:40:02.567Z,73.80
2017-05-05T22:42:32.392Z,73.70
2017-05-05T22:45:02.192Z,73.70
2017-05-05T22:47:32.024Z,73.80
2017-05-05T22:50:01.338Z,73.70
2017-05-05T22:52:30.543Z,73.80
2017-05-05T22:54:59.627Z,73.80
2017-05-05T22:57:28.702Z,73.80
2017-05-05T22:59:57.787Z,74.00
2017-05-05T23:02:26.879Z,73.90
2017-05-05T23:04:55.995Z,74.00
2017-05-05T23:07:25.078Z,74.10
2017-05-05T23:09:54.287Z,74.10
2017-05-05T23:12:23.375Z,74.00
2017-05-05T23:14:52.618Z,74.20
2017-05-05T23:17:21.681Z,74.20
2017-05-05T23:19:50.747Z,74.30
2017-05-05T23:22:20.579Z,74.30
2017-05-05T23:24:49.635Z,74.50
2017-05-05T23:27:19.476Z,74.70
2017-05-05T23:29:48.548Z,74.80
2017-05-05T23:32:18.383Z,75.00
2017-05-05T23:34:47.574Z,75.00
2017-05-05T23:37:16.786Z,75.10
2017-05-05T23:39:45.859Z,75.10
2017-05-05T23:42:14.944Z,75.10
2017-05-05T23:44:44.795Z,74.90
2017-05-05T23:47:13.854Z,74.80
2017-05-05T23:49:42.956Z,74.80
2017-05-05T23:52:12.028Z,74.70
2017-05-05T23:54:41.220Z,74.80
2017-05-05T23:57:10.276Z,74.90
2017-05-05T23:59:39.347Z,74.90
